createdAt,value
2022-07-25T00:01:53.148Z,6.32
2022-07-25T00:04:55.812Z,5.70
2022-07-25T00:07:58.140Z,5.72
2022-07-25T00:11:00.490Z,5.57
2022-07-25T00:14:03.089Z,5.88
2022-07-25T00:17:06.903Z,6.18
2022-07-25T00:20:09.784Z,6.25
2022-07-25T00:23:12.149Z,6.00
2022-07-25T00:26:14.596Z,6.57
2022-07-25T00:29:16.911Z,5.65
2022-07-25T00:32:20.552Z,6.22
2022-07-25T00:35:22.881Z,6.10
2022-07-25T00:38:25.148Z,6.38
2022-07-25T00:41:27.422Z,5.82
2022-07-25T00:44:30.792Z,6.07
2022-07-25T00:47:34.450Z,6.30
2022-07-25T00:50:36.780Z,6.38
2022-07-25T00:53:39.850Z,6.15
2022-07-25T00:56:42.599Z,5.90
2022-07-25T00:59:44.875Z,6.47
2022-07-25T01:02:48.603Z,5.93
2022-07-25T01:05:53.825Z,6.35
2022-07-25T01:08:56.676Z,6.60
2022-07-25T01:11:58.965Z,6.18
2022-07-25T01:15:01.205Z,6.45
2022-07-25T01:18:05.007Z,6.20
2022-07-25T01:21:08.661Z,6.25
2022-07-25T01:24:11.172Z,6.90
2022-07-25T01:27:17.249Z,6.00
2022-07-25T01:30:20.986Z,6.90
2022-07-25T01:33:23.280Z,6.22
2022-07-25T01:36:26.910Z,7.00
2022-07-25T01:39:29.256Z,6.18
2022-07-25T01:42:31.715Z,6.03
2022-07-25T01:45:34.042Z,6.78
2022-07-25T01:48:36.410Z,6.38
2022-07-25T01:51:40.103Z,6.57
2022-07-25T01:54:43.478Z,6.40
2022-07-25T01:57:49.434Z,6.32
2022-07-25T02:00:51.955Z,6.47
2022-07-25T02:03:54.624Z,6.10
2022-07-25T02:06:58.273Z,7.00
2022-07-25T02:10:00.576Z,7.00
2022-07-25T02:13:02.882Z,7.40
2022-07-25T02:16:05.746Z,6.22
2022-07-25T02:19:08.158Z,6.93
2022-07-25T02:22:11.904Z,7.43
2022-07-25T02:25:14.162Z,7.15
2022-07-25T02:28:16.452Z,6.75
2022-07-25T02:31:18.755Z,6.35
2022-07-25T02:34:21.094Z,6.70
2022-07-25T02:37:24.732Z,7.30
2022-07-25T02:40:27.133Z,6.85
2022-07-25T02:43:29.428Z,6.47
2022-07-25T02:46:32.133Z,6.80
2022-07-25T02:49:34.484Z,7.00
2022-07-25T02:52:38.174Z,6.72
2022-07-25T02:55:40.380Z,7.13
2022-07-25T02:58:42.696Z,6.82
2022-07-25T03:01:45.130Z,7.10
2022-07-25T03:04:47.440Z,7.57
2022-07-25T03:07:51.282Z,7.20
2022-07-25T03:10:53.797Z,6.55
2022-07-25T03:13:56.077Z,7.00
2022-07-25T03:16:58.487Z,6.90
2022-07-25T03:20:00.845Z,7.07
2022-07-25T03:23:04.597Z,7.60
2022-07-25T03:26:06.846Z,6.35
2022-07-25T03:29:09.131Z,7.15
2022-07-25T03:32:11.837Z,7.22
2022-07-25T03:35:14.299Z,7.03
2022-07-25T03:38:17.935Z,6.65
2022-07-25T03:41:20.214Z,6.72
2022-07-25T03:44:23.566Z,7.70
2022-07-25T03:47:25.848Z,7.28
2022-07-25T03:50:28.395Z,6.80
2022-07-25T03:53:32.142Z,7.18
2022-07-25T03:56:43.235Z,6.90
2022-07-25T03:59:46.376Z,7.22
2022-07-25T04:02:48.934Z,8.02
2022-07-25T04:05:51.298Z,6.60
2022-07-25T04:08:56.030Z,6.93
2022-07-25T04:11:58.284Z,6.72
2022-07-25T04:15:00.593Z,7.40
2022-07-25T04:18:02.882Z,6.60
2022-07-25T04:21:05.586Z,6.85
2022-07-25T04:24:09.708Z,6.78
2022-07-25T04:27:12.061Z,7.22
2022-07-25T04:30:23.994Z,7.93
2022-07-25T04:33:27.117Z,7.05
2022-07-25T04:36:29.919Z,7.43
2022-07-25T04:39:33.637Z,6.75
2022-07-25T04:42:35.941Z,6.45
2022-07-25T04:45:38.528Z,6.50
2022-07-25T04:48:40.974Z,6.47
2022-07-25T04:51:44.599Z,7.30
2022-07-25T04:54:48.262Z,6.90
2022-07-25T04:57:50.627Z,6.55
2022-07-25T05:00:54.163Z,5.85
2022-07-25T05:03:56.524Z,6.25
2022-07-25T05:06:59.342Z,6.82
2022-07-25T05:10:04.101Z,5.97
2022-07-25T05:13:06.459Z,6.55
2022-07-25T05:16:08.954Z,7.20
2022-07-25T05:19:12.126Z,6.80
2022-07-25T05:22:14.579Z,6.60
2022-07-25T05:25:19.223Z,6.72
2022-07-25T05:28:21.576Z,6.47
2022-07-25T05:31:24.019Z,7.53
2022-07-25T05:34:26.439Z,6.00
2022-07-25T05:37:28.807Z,6.78
2022-07-25T05:40:32.354Z,6.90
2022-07-25T05:43:34.703Z,6.93
2022-07-25T05:46:39.493Z,6.68
2022-07-25T05:49:41.918Z,6.80
2022-07-25T05:52:44.178Z,6.28
2022-07-25T05:55:47.876Z,6.82
2022-07-25T05:58:50.187Z,6.75
2022-07-25T06:01:52.660Z,6.50
2022-07-25T06:04:55.036Z,7.25
2022-07-25T06:07:57.302Z,6.63
2022-07-25T06:11:03.905Z,6.57
2022-07-25T06:14:07.317Z,6.47
2022-07-25T06:17:13.160Z,6.65
2022-07-25T06:20:16.889Z,6.40
2022-07-25T06:23:19.703Z,6.05
2022-07-25T06:26:26.031Z,5.72
2022-07-25T06:29:29.336Z,6.38
2022-07-25T06:32:31.766Z,6.07
2022-07-25T06:35:34.035Z,6.18
2022-07-25T06:38:36.365Z,6.05
2022-07-25T06:41:40.130Z,6.47
2022-07-25T06:44:42.409Z,5.85
2022-07-25T06:47:45.144Z,6.32
2022-07-25T06:50:47.700Z,5.70
2022-07-25T06:53:50.369Z,6.03
2022-07-25T06:56:55.362Z,5.55
2022-07-25T06:59:57.933Z,6.70
2022-07-25T07:03:02.258Z,6.03
2022-07-25T07:06:04.785Z,5.60
2022-07-25T07:09:07.920Z,5.97
2022-07-25T07:12:12.147Z,6.75
2022-07-25T07:15:15.378Z,6.00
2022-07-25T07:18:20.826Z,5.93
2022-07-25T07:21:23.558Z,6.38
2022-07-25T07:24:25.898Z,6.05
2022-07-25T07:27:29.720Z,6.25
2022-07-25T07:30:58.456Z,6.07
2022-07-25T07:33:55.222Z,5.80
2022-07-25T07:36:57.634Z,6.03
2022-07-25T07:39:59.991Z,5.78
2022-07-25T07:43:03.987Z,5.78
2022-07-25T07:46:06.749Z,5.63
2022-07-25T07:49:09.738Z,5.90
2022-07-25T07:52:12.471Z,6.47
2022-07-25T07:55:33.797Z,5.80
2022-07-25T07:58:37.617Z,5.45
2022-07-25T08:01:39.947Z,5.78
2022-07-25T08:04:42.330Z,5.85
2022-07-25T08:07:44.564Z,6.85
2022-07-25T08:10:48.481Z,6.85
2022-07-25T08:13:52.438Z,6.53
2022-07-25T08:16:57.019Z,6.88
2022-07-25T08:20:09.410Z,6.35
2022-07-25T08:23:22.440Z,6.57
2022-07-25T08:26:27.944Z,6.32
2022-07-25T08:29:31.906Z,6.47
2022-07-25T08:32:35.075Z,6.32
2022-07-25T08:35:37.470Z,6.05
2022-07-25T08:38:39.856Z,6.18
2022-07-25T08:41:42.712Z,5.50
2022-07-25T08:44:50.730Z,6.25
2022-07-25T08:47:54.517Z,6.22
2022-07-25T08:50:57.551Z,5.95
2022-07-25T08:54:00.714Z,6.03
2022-07-25T08:57:03.097Z,5.10
2022-07-25T09:00:08.520Z,6.00
2022-07-25T09:03:11.153Z,5.70
2022-07-25T09:06:16.151Z,6.05
2022-07-25T09:09:19.006Z,5.93
2022-07-25T09:12:26.254Z,5.32
2022-07-25T09:15:31.847Z,5.60
2022-07-25T09:18:36.331Z,5.47
2022-07-25T09:21:39.891Z,4.78
2022-07-25T09:24:45.525Z,4.88
2022-07-25T09:27:47.960Z,5.25
2022-07-25T09:30:55.859Z,4.95
2022-07-25T09:34:00.358Z,5.13
2022-07-25T09:37:03.673Z,4.80
2022-07-25T09:40:14.653Z,5.20
2022-07-25T09:43:16.891Z,5.45
2022-07-25T09:46:30.016Z,5.63
2022-07-25T09:49:40.308Z,5.05
2022-07-25T09:52:42.922Z,5.47
2022-07-25T09:55:45.408Z,5.82
2022-07-25T09:58:47.951Z,5.50
2022-07-25T10:02:00.532Z,5.20
2022-07-25T10:05:10.143Z,5.97
2022-07-25T10:08:12.963Z,5.65
2022-07-25T10:11:19.298Z,6.07
2022-07-25T10:14:21.678Z,5.28
2022-07-25T10:17:25.437Z,6.03
2022-07-25T10:20:28.507Z,5.85
2022-07-25T10:23:30.852Z,5.50
2022-07-25T10:26:35.221Z,5.25
2022-07-25T10:29:38.345Z,6.18
2022-07-25T10:32:50.150Z,5.78
2022-07-25T10:35:52.485Z,5.78
2022-07-25T10:38:57.542Z,6.05
2022-07-25T10:42:02.892Z,6.20
2022-07-25T10:45:09.421Z,5.47
2022-07-25T10:48:21.382Z,4.90
2022-07-25T10:51:26.787Z,5.03
2022-07-25T10:54:34.053Z,5.00
2022-07-25T10:57:45.176Z,5.22
2022-07-25T11:00:57.709Z,5.05
2022-07-25T11:04:04.418Z,4.85
2022-07-25T11:07:10.710Z,5.05
2022-07-25T11:10:12.949Z,4.95
2022-07-25T11:13:15.474Z,5.03
2022-07-25T11:16:17.834Z,5.32
2022-07-25T11:19:23.800Z,5.05
2022-07-25T11:22:27.465Z,4.70
2022-07-25T11:25:29.799Z,3.95
2022-07-25T11:28:43.342Z,5.00
2022-07-25T11:31:51.881Z,4.10
2022-07-25T11:34:55.530Z,4.18
2022-07-25T11:38:01.414Z,4.03
2022-07-25T11:41:03.793Z,3.85
2022-07-25T11:44:07.874Z,4.22
2022-07-25T11:47:22.699Z,4.03
2022-07-25T11:50:31.445Z,3.95
2022-07-25T11:53:39.617Z,3.78
2022-07-25T11:56:43.495Z,3.58
2022-07-25T11:59:46.210Z,3.95
2022-07-25T12:02:49.428Z,3.60
2022-07-25T12:05:53.192Z,3.05
2022-07-25T12:08:55.437Z,3.53
2022-07-25T12:12:02.654Z,3.03
2022-07-25T12:15:05.910Z,2.70
2022-07-25T12:18:10.598Z,3.10
2022-07-25T12:21:14.311Z,3.00
2022-07-25T12:24:16.609Z,2.78
2022-07-25T12:27:18.900Z,2.65
2022-07-25T12:30:21.288Z,3.35
2022-07-25T12:33:23.658Z,3.22
2022-07-25T12:36:27.336Z,3.90
2022-07-25T12:39:29.649Z,3.05
2022-07-25T12:42:31.974Z,2.67
2022-07-25T12:45:34.339Z,2.30
2022-07-25T12:48:37.430Z,2.42
2022-07-25T12:51:41.165Z,2.22
2022-07-25T12:54:43.601Z,2.33
2022-07-25T12:57:46.210Z,1.75
2022-07-25T13:00:49.233Z,2.30
2022-07-25T13:03:51.561Z,2.88
2022-07-25T13:06:56.509Z,2.17
2022-07-25T13:09:58.851Z,2.85
2022-07-25T13:13:01.210Z,2.63
2022-07-25T13:16:03.906Z,2.05
2022-07-25T13:19:06.695Z,2.17
2022-07-25T13:22:10.715Z,1.90
2022-07-25T13:25:13.114Z,2.10
2022-07-25T13:28:15.441Z,2.13
2022-07-25T13:31:18.651Z,2.42
2022-07-25T13:34:22.074Z,1.80
2022-07-25T13:37:26.309Z,1.40
2022-07-25T13:40:28.602Z,1.80
2022-07-25T13:43:30.832Z,1.42
2022-07-25T13:46:33.180Z,1.40
2022-07-25T13:49:36.900Z,1.83
2022-07-25T13:52:40.577Z,1.30
2022-07-25T13:55:43.259Z,1.05
2022-07-25T13:58:45.642Z,1.08
2022-07-25T14:01:50.953Z,1.20
2022-07-25T14:04:54.158Z,1.02
2022-07-25T14:07:57.851Z,1.10
2022-07-25T14:11:00.823Z,1.30
2022-07-25T14:14:03.149Z,1.27
2022-07-25T14:17:05.504Z,1.17
2022-07-25T14:20:09.521Z,1.25
2022-07-25T14:23:13.498Z,1.30
2022-07-25T14:26:15.731Z,1.38
2022-07-25T14:29:18.205Z,1.17
2022-07-25T14:32:20.631Z,1.67
2022-07-25T14:35:22.943Z,1.58
2022-07-25T14:38:26.647Z,1.52
2022-07-25T14:41:28.919Z,1.27
2022-07-25T14:44:31.197Z,1.23
2022-07-25T14:47:33.565Z,1.33
2022-07-25T14:50:35.913Z,1.65
2022-07-25T14:53:39.609Z,1.20
2022-07-25T14:56:42.910Z,1.27
2022-07-25T14:59:45.178Z,1.58
2022-07-25T15:02:47.491Z,1.40
2022-07-25T15:05:49.876Z,1.05
2022-07-25T15:08:53.601Z,1.38
2022-07-25T15:11:56.140Z,1.50
2022-07-25T15:14:58.389Z,1.40
2022-07-25T15:18:00.694Z,1.13
2022-07-25T15:21:03.153Z,1.77
2022-07-25T15:24:07.245Z,1.70
2022-07-25T15:27:09.602Z,2.05
2022-07-25T15:30:12.698Z,1.60
2022-07-25T15:33:15.212Z,1.60
2022-07-25T15:36:18.730Z,1.30
2022-07-25T15:39:23.151Z,1.42
2022-07-25T15:42:28.972Z,1.38
2022-07-25T15:45:33.572Z,1.90
2022-07-25T15:48:36.306Z,1.23
2022-07-25T15:51:38.880Z,1.42
2022-07-25T15:54:42.579Z,1.50
2022-07-25T15:57:44.877Z,1.33
2022-07-25T16:00:47.565Z,1.48
2022-07-25T16:03:50.273Z,0.90
2022-07-25T16:06:52.673Z,1.05
2022-07-25T16:10:04.610Z,1.10
2022-07-25T16:13:07.535Z,1.38
2022-07-25T16:16:10.229Z,1.50
2022-07-25T16:19:12.831Z,1.40
2022-07-25T16:22:15.133Z,1.05
2022-07-25T16:25:18.949Z,1.33
2022-07-25T16:28:21.392Z,1.10
2022-07-25T16:31:24.614Z,1.20
2022-07-25T16:34:29.203Z,1.17
2022-07-25T16:37:31.855Z,1.10
2022-07-25T16:40:35.828Z,1.10
2022-07-25T16:43:38.237Z,1.58
2022-07-25T16:46:41.044Z,1.30
2022-07-25T16:49:43.554Z,1.40
2022-07-25T16:52:46.893Z,1.40
2022-07-25T16:55:50.656Z,1.00
2022-07-25T16:58:53.299Z,0.90
2022-07-25T17:01:56.470Z,1.08
2022-07-25T17:04:59.192Z,1.10
2022-07-25T17:08:01.746Z,1.38
2022-07-25T17:11:05.991Z,1.15
2022-07-25T17:14:08.333Z,1.20
2022-07-25T17:17:10.692Z,1.10
2022-07-25T17:20:13.314Z,1.13
2022-07-25T17:23:15.696Z,1.15
2022-07-25T17:26:22.811Z,1.23
2022-07-25T17:29:25.827Z,1.40
2022-07-25T17:32:30.244Z,1.40
2022-07-25T17:35:33.064Z,1.20
2022-07-25T17:38:37.074Z,1.80
2022-07-25T17:41:40.930Z,1.35
2022-07-25T17:44:44.122Z,1.15
2022-07-25T17:47:46.589Z,1.38
2022-07-25T17:50:48.976Z,1.20
2022-07-25T17:53:51.492Z,1.10
2022-07-25T17:56:55.197Z,1.40
2022-07-25T17:59:57.536Z,1.33
2022-07-25T18:03:00.135Z,1.85
2022-07-25T18:06:03.419Z,2.00
2022-07-25T18:09:05.874Z,1.50
2022-07-25T18:12:09.728Z,1.52
2022-07-25T18:15:14.199Z,1.25
2022-07-25T18:18:20.386Z,1.27
2022-07-25T18:21:24.348Z,1.90
2022-07-25T18:24:29.436Z,1.25
2022-07-25T18:27:33.545Z,1.35
2022-07-25T18:30:36.234Z,1.10
2022-07-25T18:33:38.648Z,1.17
2022-07-25T18:36:41.536Z,1.00
2022-07-25T18:39:44.091Z,1.15
2022-07-25T18:42:47.946Z,0.80
2022-07-25T18:45:50.835Z,1.00
2022-07-25T18:48:53.922Z,1.13
2022-07-25T18:51:56.676Z,1.23
2022-07-25T18:54:59.056Z,1.40
2022-07-25T18:58:02.941Z,0.80
2022-07-25T19:01:05.530Z,0.70
2022-07-25T19:04:08.318Z,0.85
2022-07-25T19:07:11.036Z,1.20
2022-07-25T19:10:13.599Z,1.10
2022-07-25T19:13:39.071Z,0.90
2022-07-25T19:16:39.883Z,0.90
2022-07-25T19:19:42.503Z,0.77
2022-07-25T19:22:44.942Z,1.00
2022-07-25T19:25:47.432Z,0.90
2022-07-25T19:28:51.517Z,0.70
2022-07-25T19:31:53.917Z,0.70
2022-07-25T19:34:56.164Z,0.80
2022-07-25T19:37:58.497Z,0.85
2022-07-25T19:41:01.720Z,0.70
2022-07-25T19:44:06.518Z,0.90
2022-07-25T19:47:11.818Z,0.90
2022-07-25T19:50:14.477Z,1.00
2022-07-25T19:53:16.844Z,1.10
2022-07-25T19:56:19.283Z,0.75
2022-07-25T19:59:22.985Z,1.00
2022-07-25T20:02:25.381Z,1.00
2022-07-25T20:05:27.749Z,1.00
2022-07-25T20:08:30.059Z,0.65
2022-07-25T20:11:32.450Z,0.80
2022-07-25T20:14:36.314Z,1.08
2022-07-25T20:17:38.743Z,0.77
2022-07-25T20:20:40.913Z,0.60
2022-07-25T20:23:43.128Z,0.60
2022-07-25T20:26:45.690Z,1.90
2022-07-25T20:29:49.423Z,0.68
2022-07-25T20:32:51.809Z,0.65
2022-07-25T20:35:54.851Z,0.88
2022-07-25T20:39:00.679Z,0.63
2022-07-25T20:42:03.246Z,0.40
2022-07-25T20:45:08.585Z,0.80
2022-07-25T20:48:10.947Z,1.17
2022-07-25T20:51:13.453Z,0.70
2022-07-25T20:54:17.949Z,2.10
2022-07-25T20:57:22.284Z,0.70
2022-07-25T21:00:27.754Z,0.60
2022-07-25T21:03:31.087Z,0.65
2022-07-25T21:06:33.549Z,0.40
2022-07-25T21:09:36.406Z,0.50
2022-07-25T21:12:39.335Z,0.50
2022-07-25T21:15:42.994Z,0.82
2022-07-25T21:18:45.342Z,0.60
2022-07-25T21:21:48.490Z,1.10
2022-07-25T21:24:50.889Z,1.15
2022-07-25T21:27:53.208Z,0.70
2022-07-25T21:30:56.959Z,0.70
2022-07-25T21:33:59.937Z,0.90
2022-07-25T21:37:02.220Z,1.73
2022-07-25T21:40:05.368Z,1.10
2022-07-25T21:43:07.735Z,1.30
2022-07-25T21:46:16.923Z,0.70
2022-07-25T21:49:41.319Z,0.70
2022-07-25T21:52:44.503Z,0.90
2022-07-25T21:55:46.790Z,0.70
2022-07-25T21:58:49.134Z,0.57
2022-07-25T22:01:52.952Z,0.40
2022-07-25T22:04:56.916Z,0.60
2022-07-25T22:07:59.344Z,0.50
2022-07-25T22:11:15.571Z,0.40
2022-07-25T22:14:22.967Z,0.43
2022-07-25T22:17:26.678Z,0.47
2022-07-25T22:20:49.054Z,0.40
2022-07-25T22:23:51.415Z,0.45
2022-07-25T22:26:53.828Z,0.40
2022-07-25T22:29:56.098Z,0.80
2022-07-25T22:32:59.742Z,0.47
2022-07-25T22:36:02.276Z,0.60
2022-07-25T22:39:05.099Z,0.30
2022-07-25T22:42:07.637Z,0.40
2022-07-25T22:45:10.783Z,0.40
2022-07-25T22:48:14.459Z,0.38
2022-07-25T22:51:16.777Z,0.45
2022-07-25T22:54:19.102Z,0.35
2022-07-25T22:57:21.393Z,0.45
2022-07-25T23:00:23.642Z,0.40
2022-07-25T23:03:31.612Z,0.50
2022-07-25T23:06:35.292Z,0.95
2022-07-25T23:09:37.626Z,0.40
2022-07-25T23:12:40.092Z,0.50
2022-07-25T23:15:50.404Z,0.30
2022-07-25T23:18:55.707Z,0.38
2022-07-25T23:21:57.978Z,0.50
2022-07-25T23:25:00.265Z,0.40
2022-07-25T23:28:02.537Z,0.40
2022-07-25T23:31:05.090Z,0.30
2022-07-25T23:34:09.429Z,0.40
2022-07-25T23:37:11.734Z,0.30
2022-07-25T23:40:14.149Z,0.55
2022-07-25T23:43:26.795Z,0.65
2022-07-25T23:46:38.945Z,0.80
2022-07-25T23:49:42.758Z,0.30
2022-07-25T23:52:45.045Z,0.40
2022-07-25T23:55:47.293Z,0.50
2022-07-25T23:58:50.191Z,0.40
